Time;durP1;ratioP1;P1;durP2;ratioP2;P2;SDS_P1;SDS_P2;PMS_P1;PMS_P2;Temp;Humidity;BMP_temperature;BMP_pressure;BME280_temperature;BME280_humidity;BME280_pressure;Samples;Min_cycle;Max_cycle;Signal;HPM_P1;HPM_P2
2023/04/18 00:02:07;;;;;;;4.57;4.27;;;9.80;99.90;;;;;;5095110;28;20636;-77
2023/04/18 00:04:33;;;;;;;4.80;4.33;;;9.80;99.90;;;;;;5093557;28;20175;-78
2023/04/18 00:07:00;;;;;;;4.53;4.23;;;9.80;99.90;;;;;;5093128;28;20172;-78
2023/04/18 00:09:26;;;;;;;5.47;4.63;;;9.70;99.90;;;;;;5096182;28;20175;-76
2023/04/18 00:11:53;;;;;;;7.13;4.67;;;9.70;99.90;;;;;;5094217;28;20244;-77
2023/04/18 00:14:19;;;;;;;4.87;4.47;;;9.70;99.90;;;;;;5094743;28;20162;-78
2023/04/18 00:16:45;;;;;;;4.77;4.37;;;9.70;99.90;;;;;;5094656;28;20517;-78
2023/04/18 00:19:11;;;;;;;4.57;4.17;;;9.60;99.90;;;;;;5093802;28;22561;-79
2023/04/18 00:21:43;;;;;;;5.80;4.80;;;9.70;99.90;;;;;;5096857;28;20256;-79
2023/04/18 00:24:09;;;;;;;4.80;4.40;;;9.70;99.90;;;;;;5094606;28;20154;-80
2023/04/18 00:26:35;;;;;;;4.33;3.93;;;9.80;99.90;;;;;;5094033;28;20174;-76
2023/04/18 00:29:04;;;;;;;4.80;4.40;;;9.70;99.90;;;;;;5094517;28;20167;-82
2023/04/18 00:31:30;;;;;;;4.23;3.93;;;9.70;99.90;;;;;;5094290;28;20263;-76
2023/04/18 00:33:56;;;;;;;4.20;3.90;;;9.60;99.90;;;;;;5093249;28;20231;-79
2023/04/18 00:36:25;;;;;;;5.87;4.50;;;9.60;99.90;;;;;;5092972;28;20176;-82
2023/04/18 00:38:53;;;;;;;4.03;3.73;;;9.60;99.90;;;;;;5094558;28;20210;-80
2023/04/18 00:41:20;;;;;;;4.10;3.80;;;9.50;99.90;;;;;;5094697;28;20218;-79
2023/04/18 00:43:46;;;;;;;4.70;4.30;;;9.50;99.90;;;;;;5094381;28;20573;-83
2023/04/18 00:46:12;;;;;;;5.67;4.40;;;9.40;99.90;;;;;;5094195;28;20198;-78
2023/04/18 00:48:38;;;;;;;6.03;4.40;;;9.40;99.90;;;;;;5094446;28;20567;-82
2023/04/18 00:51:10;;;;;;;5.03;4.63;;;9.40;99.90;;;;;;5096018;28;20649;-78
2023/04/18 00:53:37;;;;;;;4.80;4.33;;;9.40;99.90;;;;;;5093764;28;20174;-76
2023/04/18 00:56:03;;;;;;;4.60;4.17;;;9.20;99.90;;;;;;5093000;28;20653;-81
2023/04/18 00:58:30;;;;;;;4.23;3.83;;;9.30;99.90;;;;;;5093792;28;20263;-78
2023/04/18 01:00:56;;;;;;;4.17;3.87;;;9.30;99.90;;;;;;5093676;28;20754;-75
2023/04/18 01:03:21;;;;;;;6.00;4.60;;;9.20;99.90;;;;;;5093878;28;20163;-82
2023/04/18 01:05:47;;;;;;;4.87;3.97;;;9.30;99.90;;;;;;5093660;28;20538;-80
2023/04/18 01:08:13;;;;;;;4.53;4.10;;;9.20;99.90;;;;;;5094277;28;20253;-79
2023/04/18 01:10:39;;;;;;;3.80;3.50;;;9.20;99.90;;;;;;5097769;28;20191;-79
2023/04/18 01:13:16;;;;;;;4.47;4.17;;;9.20;99.90;;;;;;5099974;28;20176;-84
2023/04/18 01:15:46;;;;;;;6.43;4.27;;;9.10;99.90;;;;;;5094290;28;20182;-81
2023/04/18 01:18:15;;;;;;;4.80;4.40;;;9.00;99.90;;;;;;5093884;28;20278;-81
2023/04/18 01:20:45;;;;;;;4.67;4.27;;;9.20;99.90;;;;;;5100812;28;20210;-82
2023/04/18 01:23:11;;;;;;;5.03;3.90;;;9.10;99.90;;;;;;5097426;28;20158;-78
2023/04/18 01:25:38;;;;;;;4.00;3.70;;;9.20;99.90;;;;;;5080665;28;20223;-81
2023/04/18 01:28:05;;;;;;;4.43;3.80;;;9.10;99.90;;;;;;5098218;28;20660;-83
2023/04/18 01:30:33;;;;;;;5.80;4.10;;;8.90;99.90;;;;;;5096309;28;20693;-81
2023/04/18 01:33:03;;;;;;;5.03;4.57;;;8.90;99.90;;;;;;5096922;28;20184;-81
2023/04/18 01:35:30;;;;;;;3.87;3.57;;;8.70;99.90;;;;;;5093838;28;20197;-84
2023/04/18 01:37:56;;;;;;;4.70;3.97;;;8.80;99.90;;;;;;5093376;28;20228;-77
2023/04/18 01:40:23;;;;;;;4.67;3.77;;;8.80;99.90;;;;;;5093497;28;20209;-77
2023/04/18 01:42:49;;;;;;;6.83;4.10;;;8.80;99.90;;;;;;5091987;28;20205;-76
2023/04/18 01:45:15;;;;;;;4.30;3.90;;;8.80;99.90;;;;;;5092920;28;20227;-80
2023/04/18 01:47:42;;;;;;;4.03;3.73;;;8.80;99.90;;;;;;5092855;28;20681;-77
2023/04/18 01:50:08;;;;;;;3.87;3.67;;;8.80;99.90;;;;;;5093174;28;20188;-78
2023/04/18 01:52:34;;;;;;;4.97;4.17;;;8.80;99.90;;;;;;5093040;28;20555;-77
2023/04/18 01:55:01;;;;;;;4.20;3.80;;;8.80;99.90;;;;;;5092786;28;20265;-82
2023/04/18 01:57:27;;;;;;;3.70;3.40;;;8.80;99.90;;;;;;5092407;28;20236;-76
2023/04/18 01:59:53;;;;;;;4.33;3.93;;;8.80;99.90;;;;;;5091423;28;20241;-81
2023/04/18 02:02:19;;;;;;;5.30;4.30;;;8.80;99.90;;;;;;5094075;28;20518;-80
2023/04/18 02:04:45;;;;;;;4.10;3.80;;;8.90;99.90;;;;;;5092739;28;20177;-77
2023/04/18 02:07:11;;;;;;;3.70;3.40;;;8.90;99.90;;;;;;5092737;28;20183;-82
2023/04/18 02:09:36;;;;;;;3.60;3.33;;;8.90;99.90;;;;;;5092627;28;20179;-79
2023/04/18 02:12:02;;;;;;;3.70;3.40;;;8.90;99.90;;;;;;5092721;28;20646;-80
2023/04/18 02:14:31;;;;;;;3.70;3.40;;;8.90;99.90;;;;;;5092756;28;20257;-83
2023/04/18 02:16:58;;;;;;;3.93;3.63;;;8.90;99.90;;;;;;5092335;28;20185;-77
2023/04/18 02:19:23;;;;;;;4.00;3.70;;;8.90;99.90;;;;;;5092078;28;20202;-81
2023/04/18 02:21:50;;;;;;;4.37;3.30;;;9.00;99.90;;;;;;5092246;28;20257;-78
2023/04/18 02:24:16;;;;;;;4.50;3.60;;;8.90;99.90;;;;;;5091791;28;20252;-76
2023/04/18 02:26:42;;;;;;;3.63;3.40;;;8.90;99.90;;;;;;5092427;28;20261;-74
2023/04/18 02:29:09;;;;;;;5.03;3.70;;;8.90;99.90;;;;;;5093213;28;20664;-77
2023/04/18 02:31:37;;;;;;;3.40;3.10;;;8.90;99.90;;;;;;5092860;28;20180;-81
2023/04/18 02:34:03;;;;;;;3.60;3.30;;;8.90;99.90;;;;;;5092662;28;20223;-77
2023/04/18 02:36:29;;;;;;;3.43;3.23;;;8.90;99.90;;;;;;5092113;28;20180;-79
2023/04/18 02:38:55;;;;;;;3.57;3.37;;;8.90;99.90;;;;;;5091901;28;20176;-78
2023/04/18 02:41:21;;;;;;;3.63;3.33;;;9.00;99.90;;;;;;5092327;28;20300;-75
2023/04/18 02:43:47;;;;;;;4.03;3.63;;;9.00;99.90;;;;;;5092911;28;20591;-75
2023/04/18 02:46:13;;;;;;;4.00;3.60;;;9.10;99.90;;;;;;5092373;28;20185;-78
2023/04/18 02:48:39;;;;;;;5.37;3.37;;;9.00;99.90;;;;;;5096286;28;20171;-76
2023/04/18 02:51:06;;;;;;;3.77;3.47;;;9.00;99.90;;;;;;5093898;28;20186;-78
2023/04/18 02:53:32;;;;;;;3.40;3.20;;;9.00;99.90;;;;;;5097128;28;20175;-78
2023/04/18 02:55:58;;;;;;;3.93;3.40;;;9.00;99.90;;;;;;5093068;28;20210;-80
2023/04/18 02:58:25;;;;;;;3.90;3.60;;;9.10;99.90;;;;;;5091711;28;20231;-79
2023/04/18 03:00:54;;;;;;;3.90;3.60;;;9.10;99.90;;;;;;5092182;28;20293;-78
2023/04/18 03:03:20;;;;;;;3.70;3.40;;;9.20;99.90;;;;;;5092139;28;20186;-77
2023/04/18 03:05:46;;;;;;;3.60;3.30;;;9.20;99.90;;;;;;5091949;28;20554;-76
2023/04/18 03:08:12;;;;;;;3.70;3.40;;;9.20;99.90;;;;;;5094540;28;20657;-76
2023/04/18 03:10:38;;;;;;;3.83;3.43;;;9.30;99.90;;;;;;5092905;28;20197;-75
2023/04/18 03:13:04;;;;;;;3.20;3.00;;;9.30;99.90;;;;;;5092288;28;20316;-77
2023/04/18 03:15:30;;;;;;;5.70;3.83;;;9.30;99.90;;;;;;5092401;28;20234;-82
2023/04/18 03:17:56;;;;;;;3.47;3.27;;;9.20;99.90;;;;;;5093447;28;20254;-84
2023/04/18 03:20:22;;;;;;;4.17;3.37;;;9.20;99.90;;;;;;5095692;28;20199;-84
2023/04/18 03:22:48;;;;;;;5.07;3.60;;;9.20;99.90;;;;;;5096075;28;20171;-82
2023/04/18 03:25:13;;;;;;;7.80;3.57;;;9.10;99.90;;;;;;5091915;28;20192;-80
2023/04/18 03:27:39;;;;;;;4.03;3.63;;;9.20;99.90;;;;;;5090951;28;20553;-78
2023/04/18 03:30:06;;;;;;;4.33;3.40;;;9.10;99.90;;;;;;5090274;28;20177;-76
2023/04/18 03:32:35;;;;;;;3.70;3.40;;;9.20;99.90;;;;;;5090176;28;20518;-78
2023/04/18 03:35:01;;;;;;;3.70;3.40;;;9.20;99.90;;;;;;5092652;28;20184;-75
2023/04/18 03:37:27;;;;;;;3.77;3.47;;;9.20;99.90;;;;;;5095094;28;20182;-78
2023/04/18 03:39:56;;;;;;;6.07;3.83;;;9.10;99.90;;;;;;5095159;28;20263;-78
2023/04/18 03:42:21;;;;;;;4.07;3.67;;;9.10;99.90;;;;;;5096823;28;20166;-75
2023/04/18 03:44:47;;;;;;;3.70;3.40;;;9.10;99.90;;;;;;5094338;28;20237;-79
2023/04/18 03:47:15;;;;;;;3.57;3.27;;;9.10;99.90;;;;;;5093731;28;20259;-78
2023/04/18 03:49:42;;;;;;;3.40;3.20;;;9.10;99.90;;;;;;5094975;28;20279;-77
2023/04/18 03:52:07;;;;;;;4.30;3.90;;;9.10;99.90;;;;;;5095390;28;20187;-76
2023/04/18 03:54:33;;;;;;;3.80;3.40;;;9.20;99.90;;;;;;5095170;28;20170;-81
2023/04/18 03:56:59;;;;;;;4.40;4.00;;;9.30;99.90;;;;;;5094908;28;20182;-83
2023/04/18 03:59:26;;;;;;;4.77;3.50;;;9.40;99.90;;;;;;5094580;28;20231;-79
2023/04/18 04:01:52;;;;;;;3.63;3.33;;;9.40;99.90;;;;;;5095854;28;20188;-78
2023/04/18 04:04:18;;;;;;;4.87;4.03;;;9.30;99.90;;;;;;5095706;28;20170;-82
2023/04/18 04:06:43;;;;;;;5.47;3.80;;;9.40;99.90;;;;;;5096619;28;20194;-78
2023/04/18 04:09:09;;;;;;;4.13;3.80;;;9.30;99.90;;;;;;5096154;28;20634;-77
2023/04/18 04:11:35;;;;;;;4.13;3.77;;;9.20;99.90;;;;;;5094897;28;20182;-76
2023/04/18 04:14:01;;;;;;;4.47;4.07;;;9.30;99.90;;;;;;5096649;28;20261;-75
2023/04/18 04:16:27;;;;;;;3.60;3.37;;;9.30;99.90;;;;;;5094742;28;20616;-80
2023/04/18 04:18:53;;;;;;;4.37;3.93;;;9.40;99.90;;;;;;5094715;28;20172;-79
2023/04/18 04:21:18;;;;;;;4.20;3.40;;;9.50;99.90;;;;;;5094221;28;20670;-80
2023/04/18 04:23:45;;;;;;;4.00;3.60;;;9.60;99.90;;;;;;5093658;28;20209;-80
2023/04/18 04:26:13;;;;;;;5.67;3.80;;;9.50;99.90;;;;;;5094663;28;20204;-77
2023/04/18 04:28:41;;;;;;;4.23;3.53;;;9.50;99.90;;;;;;5094518;28;20189;-79
2023/04/18 04:31:09;;;;;;;7.80;4.43;;;9.60;99.90;;;;;;5094228;28;20254;-78
2023/04/18 04:33:37;;;;;;;3.93;3.63;;;9.60;99.90;;;;;;5094369;28;20190;-82
2023/04/18 04:36:04;;;;;;;4.47;4.07;;;9.60;99.90;;;;;;5092832;28;20192;-81
2023/04/18 04:38:30;;;;;;;6.10;4.13;;;9.70;99.90;;;;;;5094216;28;20288;-80
2023/04/18 04:40:57;;;;;;;4.37;3.97;;;9.60;99.90;;;;;;5092825;28;20302;-79
2023/04/18 04:43:23;;;;;;;5.83;3.70;;;9.70;99.90;;;;;;5094671;28;20184;-77
2023/04/18 04:45:51;;;;;;;4.27;3.87;;;9.70;99.90;;;;;;5092431;28;20184;-79
2023/04/18 04:48:18;;;;;;;4.77;4.27;;;9.70;99.90;;;;;;5094532;28;20614;-81
2023/04/18 04:50:51;;;;;;;4.97;3.90;;;9.70;99.90;;;;;;5094689;28;20208;-79
2023/04/18 04:53:17;;;;;;;4.20;3.90;;;9.90;99.90;;;;;;5093003;28;20653;-85
2023/04/18 04:55:43;;;;;;;4.30;4.00;;;9.90;99.90;;;;;;5093930;28;20182;-80
2023/04/18 04:58:09;;;;;;;5.70;4.17;;;9.90;99.90;;;;;;5094125;28;20412;-84
2023/04/18 05:00:34;;;;;;;7.10;4.20;;;9.90;99.90;;;;;;5094303;28;20212;-78
2023/04/18 05:03:01;;;;;;;4.47;4.00;;;9.90;99.90;;;;;;5097784;28;20612;-81
2023/04/18 05:05:27;;;;;;;4.17;3.73;;;10.00;99.90;;;;;;5097977;28;20229;-79
2023/04/18 05:07:53;;;;;;;7.47;3.90;;;10.00;99.90;;;;;;5094832;28;20181;-82
2023/04/18 05:10:20;;;;;;;4.77;4.03;;;10.10;99.90;;;;;;5095545;28;20208;-77
2023/04/18 05:12:46;;;;;;;4.23;3.83;;;10.20;99.90;;;;;;5092905;28;20188;-80
2023/04/18 05:15:14;;;;;;;4.07;3.77;;;10.30;99.90;;;;;;5093514;28;20189;-78
2023/04/18 05:17:39;;;;;;;5.53;3.47;;;10.30;99.90;;;;;;5093686;28;20621;-80
2023/04/18 05:20:06;;;;;;;4.50;4.10;;;10.30;99.90;;;;;;5093905;28;20217;-80
2023/04/18 05:22:31;;;;;;;5.47;4.37;;;10.50;99.90;;;;;;5094728;28;20178;-79
2023/04/18 05:24:57;;;;;;;4.53;3.90;;;10.50;99.90;;;;;;5094687;28;20173;-78
2023/04/18 05:27:23;;;;;;;4.50;4.20;;;10.70;99.90;;;;;;5099810;28;20176;-78
2023/04/18 05:29:49;;;;;;;4.20;3.80;;;10.80;99.90;;;;;;5097260;28;20180;-79
2023/04/18 05:32:15;;;;;;;5.43;4.27;;;10.90;99.90;;;;;;5093688;28;20189;-80
2023/04/18 05:34:41;;;;;;;3.97;3.67;;;11.00;99.90;;;;;;5091966;28;20179;-80
2023/04/18 05:37:07;;;;;;;4.20;3.90;;;11.10;99.90;;;;;;5093251;28;20180;-79
2023/04/18 05:39:33;;;;;;;5.97;4.13;;;11.20;99.90;;;;;;5091734;28;20209;-76
2023/04/18 05:41:59;;;;;;;4.43;4.03;;;11.40;99.90;;;;;;5092960;28;20676;-78
2023/04/18 05:44:25;;;;;;;5.77;3.87;;;11.50;99.90;;;;;;5092360;28;20540;-78
2023/04/18 05:46:50;;;;;;;5.40;4.17;;;11.60;99.90;;;;;;5093650;28;20265;-74
2023/04/18 05:49:17;;;;;;;9.57;4.30;;;11.70;99.90;;;;;;5093511;28;20169;-74
2023/04/18 05:51:43;;;;;;;3.73;3.43;;;11.80;99.90;;;;;;5093100;28;20231;-76
2023/04/18 05:54:10;;;;;;;4.57;4.10;;;11.80;99.90;;;;;;5093064;28;20173;-75
2023/04/18 05:56:36;;;;;;;3.90;3.60;;;11.90;99.90;;;;;;5094016;28;20239;-75
2023/04/18 05:59:02;;;;;;;6.77;3.90;;;11.90;99.90;;;;;;5091740;28;20256;-74
2023/04/18 06:01:28;;;;;;;5.03;4.00;;;11.90;99.90;;;;;;5092542;28;20260;-78
2023/04/18 06:03:54;;;;;;;4.57;4.17;;;11.80;99.90;;;;;;5091421;28;20241;-81
2023/04/18 06:06:20;;;;;;;4.90;4.43;;;11.90;99.90;;;;;;5092659;28;20261;-77
2023/04/18 06:08:46;;;;;;;5.23;4.00;;;12.10;99.90;;;;;;5091201;28;20175;-80
2023/04/18 06:11:14;;;;;;;7.10;4.60;;;12.20;99.90;;;;;;5091402;28;20181;-78
2023/04/18 06:13:40;;;;;;;4.40;4.10;;;12.30;99.90;;;;;;5091338;28;20215;-77
2023/04/18 06:16:06;;;;;;;8.73;4.33;;;12.40;99.90;;;;;;5092467;28;20178;-78
2023/04/18 06:18:32;;;;;;;5.47;4.33;;;12.40;99.90;;;;;;5092548;28;20194;-78
2023/04/18 06:20:59;;;;;;;6.23;5.07;;;12.50;99.90;;;;;;5092559;28;20202;-76
2023/04/18 06:23:24;;;;;;;6.30;4.67;;;12.60;99.90;;;;;;5092295;28;20174;-81
2023/04/18 06:25:51;;;;;;;7.10;5.20;;;12.80;99.90;;;;;;5092336;28;20178;-77
2023/04/18 06:28:16;;;;;;;9.00;4.63;;;12.90;99.90;;;;;;5092067;28;20231;-78
2023/04/18 06:30:42;;;;;;;6.10;5.10;;;13.00;99.90;;;;;;5092337;28;20174;-78
2023/04/18 06:33:11;;;;;;;5.40;4.90;;;13.10;99.90;;;;;;5092089;28;20175;-78
2023/04/18 06:35:37;;;;;;;9.17;5.00;;;13.10;99.90;;;;;;5092076;28;20178;-80
2023/04/18 06:38:03;;;;;;;6.90;4.63;;;13.20;99.90;;;;;;5092944;28;20182;-77
2023/04/18 06:40:28;;;;;;;5.40;4.87;;;13.20;99.90;;;;;;5094176;28;20202;-81
2023/04/18 06:42:54;;;;;;;7.53;5.30;;;13.30;99.90;;;;;;5090423;28;20182;-81
2023/04/18 06:45:20;;;;;;;11.27;4.73;;;13.40;99.90;;;;;;5096659;28;20185;-76
2023/04/18 06:47:46;;;;;;;7.17;4.10;;;13.40;99.90;;;;;;5094468;28;20170;-79
2023/04/18 06:50:12;;;;;;;5.33;4.83;;;13.50;99.90;;;;;;5092319;28;20186;-80
2023/04/18 06:52:43;;;;;;;5.93;4.97;;;13.60;99.90;;;;;;5091906;28;20170;-81
2023/04/18 06:55:09;;;;;;;5.70;5.10;;;13.70;99.90;;;;;;5092354;28;20155;-80
2023/04/18 06:57:36;;;;;;;6.73;5.57;;;13.80;99.90;;;;;;5091995;28;20217;-76
2023/04/18 07:00:04;;;;;;;8.07;4.93;;;13.90;99.90;;;;;;5092814;28;20198;-77
2023/04/18 07:02:29;;;;;;;5.33;4.83;;;14.00;99.90;;;;;;5092389;28;20214;-79
2023/04/18 07:04:55;;;;;;;5.47;4.97;;;14.10;99.90;;;;;;5093000;28;20596;-75
2023/04/18 07:07:21;;;;;;;6.00;5.40;;;14.20;99.90;;;;;;5092711;28;20257;-81
2023/04/18 07:09:48;;;;;;;5.17;4.57;;;14.30;99.90;;;;;;5094305;28;20190;-79
2023/04/18 07:12:15;;;;;;;7.43;5.07;;;14.40;99.90;;;;;;5095835;28;20174;-81
2023/04/18 07:14:40;;;;;;;5.53;4.60;;;14.50;99.90;;;;;;5095781;28;20541;-79
2023/04/18 07:17:06;;;;;;;6.27;5.23;;;14.40;99.90;;;;;;5094925;28;20183;-77
2023/04/18 07:19:32;;;;;;;5.50;4.63;;;14.50;99.90;;;;;;5098687;28;20214;-77
2023/04/18 07:21:58;;;;;;;6.10;5.30;;;14.70;99.90;;;;;;5097306;28;20178;-77
2023/04/18 07:24:23;;;;;;;6.27;5.30;;;14.90;99.90;;;;;;5096860;28;20633;-78
2023/04/18 07:26:52;;;;;;;8.40;5.00;;;14.90;99.70;;;;;;5097904;28;20185;-78
2023/04/18 07:29:21;;;;;;;4.73;4.40;;;15.00;99.20;;;;;;5102141;28;20197;-79
2023/04/18 07:31:47;;;;;;;4.80;4.50;;;15.00;98.80;;;;;;5095730;28;20187;-77
2023/04/18 07:34:13;;;;;;;5.73;4.10;;;15.10;99.10;;;;;;5095242;28;20168;-78
2023/04/18 07:36:39;;;;;;;5.20;4.43;;;15.20;98.80;;;;;;5095176;28;20548;-78
2023/04/18 07:39:06;;;;;;;2.83;2.63;;;15.30;98.50;;;;;;5095303;28;20167;-76
2023/04/18 07:41:32;;;;;;;2.17;2.07;;;15.40;97.20;;;;;;5094987;28;20213;-77
2023/04/18 07:43:59;;;;;;;1.40;1.40;;;15.50;96.80;;;;;;5095082;28;20174;-78
2023/04/18 07:46:25;;;;;;;6.43;1.40;;;15.40;95.60;;;;;;5095002;28;20183;-79
2023/04/18 07:48:51;;;;;;;0.90;0.90;;;15.40;95.20;;;;;;5095325;28;20232;-80
2023/04/18 07:51:17;;;;;;;1.27;1.27;;;15.40;94.50;;;;;;5095188;28;20175;-77
2023/04/18 07:53:42;;;;;;;0.83;0.83;;;15.50;94.90;;;;;;5094863;28;20661;-83
2023/04/18 07:56:08;;;;;;;1.63;1.53;;;15.60;94.80;;;;;;5094796;28;20177;-78
2023/04/18 07:58:34;;;;;;;1.80;1.70;;;15.70;95.20;;;;;;5094838;28;20255;-77
2023/04/18 08:01:01;;;;;;;2.50;1.60;;;15.70;95.20;;;;;;5095369;28;20588;-78
2023/04/18 08:03:26;;;;;;;1.57;1.43;;;15.70;95.70;;;;;;5096193;28;20186;-80
2023/04/18 08:05:52;;;;;;;1.10;1.10;;;15.80;95.10;;;;;;5106182;28;20170;-82
2023/04/18 08:08:18;;;;;;;1.23;1.23;;;15.80;94.70;;;;;;5095282;28;20182;-80
2023/04/18 08:10:44;;;;;;;2.00;1.70;;;15.90;94.60;;;;;;5095227;28;20175;-79
2023/04/18 08:13:13;;;;;;;2.13;1.70;;;15.90;95.10;;;;;;5093534;28;20191;-83
2023/04/18 08:15:39;;;;;;;2.33;1.73;;;16.10;94.90;;;;;;5094525;28;20176;-80
2023/04/18 08:18:05;;;;;;;1.90;1.80;;;16.00;94.70;;;;;;5094709;28;20186;-78
2023/04/18 08:20:31;;;;;;;1.90;1.80;;;16.10;95.20;;;;;;5093947;28;20217;-83
2023/04/18 08:22:57;;;;;;;2.00;1.90;;;16.20;95.20;;;;;;5094836;28;20179;-81
2023/04/18 08:25:22;;;;;;;2.23;2.13;;;16.30;95.50;;;;;;5092769;28;20193;-80
2023/04/18 08:27:48;;;;;;;2.67;2.20;;;16.40;95.90;;;;;;5094519;28;20170;-80
2023/04/18 08:30:15;;;;;;;2.80;2.40;;;16.30;95.70;;;;;;5094405;28;20182;-81
2023/04/18 08:32:41;;;;;;;4.17;2.30;;;16.30;95.70;;;;;;5093083;28;20174;-79
2023/04/18 08:35:08;;;;;;;3.40;2.40;;;16.40;96.00;;;;;;5093878;28;20189;-78
2023/04/18 08:37:34;;;;;;;2.20;1.80;;;16.50;96.30;;;;;;5094381;28;20169;-81
2023/04/18 08:40:05;;;;;;;2.27;2.17;;;16.50;95.90;;;;;;5094250;28;20315;-79
2023/04/18 08:42:32;;;;;;;2.77;2.23;;;16.50;96.00;;;;;;5093999;28;20182;-81
2023/04/18 08:44:59;;;;;;;2.23;2.13;;;16.50;96.00;;;;;;5093081;28;20183;-82
2023/04/18 08:47:27;;;;;;;2.37;2.17;;;16.60;96.20;;;;;;5098032;28;20177;-79
2023/04/18 08:49:53;;;;;;;1.90;1.80;;;16.60;96.00;;;;;;5101585;28;20177;-80
2023/04/18 08:52:21;;;;;;;2.07;1.97;;;16.60;96.20;;;;;;5094914;28;20170;-80
2023/04/18 08:54:49;;;;;;;2.07;1.83;;;16.60;96.10;;;;;;5093154;28;20278;-77
2023/04/18 08:57:22;;;;;;;1.80;1.70;;;16.40;95.80;;;;;;5093939;28;20162;-82
2023/04/18 08:59:49;;;;;;;2.00;1.90;;;16.40;96.30;;;;;;5094131;28;20202;-81
2023/04/18 09:02:15;;;;;;;1.80;1.70;;;16.30;95.90;;;;;;5095716;28;20641;-79
2023/04/18 09:04:44;;;;;;;1.67;1.57;;;16.30;96.50;;;;;;5095421;28;20265;-79
2023/04/18 09:07:16;;;;;;;1.80;1.70;;;16.30;96.20;;;;;;5094321;28;20637;-77
2023/04/18 09:09:50;;;;;;;1.80;1.70;;;16.30;96.40;;;;;;5092286;28;20178;-79
2023/04/18 09:12:25;;;;;;;2.47;1.53;;;16.40;96.60;;;;;;5093567;28;20252;-79
2023/04/18 09:14:56;;;;;;;1.87;1.77;;;16.60;96.20;;;;;;5093412;28;20514;-80
2023/04/18 09:17:33;;;;;;;3.57;1.80;;;16.80;96.40;;;;;;5093433;28;20172;-76
2023/04/18 09:20:01;;;;;;;1.73;1.73;;;17.00;96.30;;;;;;5093544;28;20258;-77
2023/04/18 09:22:45;;;;;;;1.90;1.77;;;17.00;95.70;;;;;;5093810;28;20185;-78
2023/04/18 09:25:22;;;;;;;2.30;2.20;;;17.20;95.80;;;;;;5094730;28;20162;-77
2023/04/18 09:27:48;;;;;;;2.20;2.10;;;17.10;95.90;;;;;;5095134;28;20253;-77
2023/04/18 09:30:38;;;;;;;2.20;2.00;;;17.20;96.20;;;;;;5093515;28;20709;-77
2023/04/18 09:33:08;;;;;;;2.30;2.10;;;17.40;96.20;;;;;;5093292;28;20614;-75
2023/04/18 09:35:38;;;;;;;2.13;2.03;;;17.70;96.10;;;;;;5092652;28;20162;-77
2023/04/18 09:38:05;;;;;;;2.40;2.10;;;18.00;95.90;;;;;;5093313;28;20978;-80
2023/04/18 09:40:31;;;;;;;2.47;2.37;;;18.00;95.70;;;;;;5092892;28;20678;-78
2023/04/18 09:42:57;;;;;;;2.90;1.83;;;18.30;95.20;;;;;;5093087;28;20626;-78
2023/04/18 09:45:24;;;;;;;2.07;1.97;;;18.30;95.40;;;;;;5091074;28;20182;-77
2023/04/18 09:47:51;;;;;;;2.13;1.90;;;18.20;95.10;;;;;;5091352;28;20198;-75
2023/04/18 09:50:19;;;;;;;2.03;1.93;;;17.90;95.10;;;;;;5092876;28;20169;-75
2023/04/18 09:52:46;;;;;;;1.87;1.77;;;17.80;95.40;;;;;;5091291;28;20175;-76
2023/04/18 09:55:18;;;;;;;2.00;1.90;;;17.80;95.60;;;;;;5092326;28;20180;-78
2023/04/18 09:57:47;;;;;;;2.50;1.57;;;17.70;95.40;;;;;;5092442;28;20681;-79
2023/04/18 10:00:25;;;;;;;2.00;1.90;;;17.70;95.60;;;;;;5092655;28;20744;-79
2023/04/18 10:02:56;;;;;;;2.00;1.90;;;17.60;95.80;;;;;;5092771;28;20190;-78
2023/04/18 10:05:26;;;;;;;2.10;2.00;;;17.40;95.80;;;;;;5092283;28;20176;-81
2023/04/18 10:07:52;;;;;;;1.93;1.83;;;17.30;96.30;;;;;;5092428;28;20170;-79
2023/04/18 10:10:18;;;;;;;2.20;2.10;;;17.30;96.40;;;;;;5092525;28;20226;-77
2023/04/18 10:12:46;;;;;;;2.17;1.77;;;17.40;96.00;;;;;;5092445;28;20175;-81
2023/04/18 10:15:14;;;;;;;1.93;1.83;;;17.40;96.40;;;;;;5092308;28;20167;-76
2023/04/18 10:17:57;;;;;;;2.00;1.90;;;17.40;96.60;;;;;;5092401;28;20698;-79
2023/04/18 10:20:26;;;;;;;1.93;1.80;;;17.60;96.60;;;;;;5093469;28;20201;-78
2023/04/18 10:22:53;;;;;;;4.23;1.73;;;17.70;96.20;;;;;;5096477;28;20215;-78
2023/04/18 10:25:34;;;;;;;1.90;1.80;;;17.80;96.30;;;;;;5092424;28;20649;-82
2023/04/18 10:28:04;;;;;;;1.90;1.80;;;17.80;96.20;;;;;;5091545;28;20179;-81
2023/04/18 10:30:52;;;;;;;1.90;1.80;;;17.90;96.20;;;;;;5092785;28;20265;-81
2023/04/18 10:33:35;;;;;;;1.90;1.80;;;17.90;96.10;;;;;;5105548;28;20161;-84
2023/04/18 10:36:11;;;;;;;2.00;1.90;;;18.00;96.10;;;;;;5092076;28;20174;-82
2023/04/18 10:38:44;;;;;;;1.67;1.67;;;17.90;96.10;;;;;;5091555;28;20201;-83
2023/04/18 10:41:16;;;;;;;1.60;1.60;;;18.00;96.30;;;;;;5094622;28;20201;-78
2023/04/18 10:44:18;;;;;;;2.23;2.10;;;18.00;96.30;;;;;;5093206;28;20178;-78
2023/04/18 10:46:47;;;;;;;1.97;1.87;;;18.00;96.30;;;;;;5015207;28;20189;-81
2023/04/18 10:49:27;;;;;;;1.50;1.50;;;17.90;96.00;;;;;;4997721;28;20185;-78
2023/04/18 10:51:55;;;;;;;2.20;2.10;;;17.90;96.00;;;;;;5014246;28;20172;-79
2023/04/18 10:54:47;;;;;;;2.10;1.90;;;18.00;97.10;;;;;;5014096;28;20673;-82
2023/04/18 10:57:14;;;;;;;2.07;1.97;;;18.00;96.70;;;;;;5013733;28;20173;-80
2023/04/18 10:59:51;;;;;;;2.23;1.63;;;18.00;95.90;;;;;;4997521;28;20224;-77
2023/04/18 11:02:31;;;;;;;1.77;1.67;;;17.90;96.00;;;;;;4997779;28;20212;-77
2023/04/18 11:05:03;;;;;;;1.83;1.80;;;17.90;96.20;;;;;;4997449;28;20173;-77
2023/04/18 11:07:31;;;;;;;1.80;1.70;;;17.90;96.20;;;;;;5013626;28;20272;-77
2023/04/18 11:09:57;;;;;;;2.10;2.00;;;17.80;96.00;;;;;;5013762;28;20188;-74
2023/04/18 11:12:23;;;;;;;3.10;2.10;;;17.90;95.90;;;;;;5013926;28;20182;-77
2023/04/18 11:14:53;;;;;;;2.30;2.10;;;17.80;96.70;;;;;;5013772;28;20604;-78
2023/04/18 11:17:22;;;;;;;2.23;1.57;;;17.90;97.10;;;;;;5013604;28;20177;-77
2023/04/18 11:19:48;;;;;;;2.10;2.00;;;17.80;97.10;;;;;;5024263;28;20208;-77
2023/04/18 11:22:17;;;;;;;1.80;1.77;;;17.90;97.10;;;;;;5095863;28;20171;-76
2023/04/18 11:24:43;;;;;;;2.53;2.33;;;17.80;97.10;;;;;;5095936;28;20196;-80
2023/04/18 11:27:10;;;;;;;2.57;1.70;;;17.70;96.90;;;;;;5093882;28;20485;-81
2023/04/18 11:29:36;;;;;;;1.50;1.40;;;17.70;97.00;;;;;;5095811;28;20173;-76
2023/04/18 11:32:06;;;;;;;1.90;1.80;;;17.70;96.80;;;;;;5095664;28;20174;-78
2023/04/18 11:34:32;;;;;;;1.40;1.40;;;17.60;96.10;;;;;;5095599;28;20180;-79
2023/04/18 11:36:58;;;;;;;3.20;1.47;;;17.40;96.60;;;;;;5096091;28;20182;-76
2023/04/18 11:39:24;;;;;;;1.80;1.70;;;17.30;97.30;;;;;;5095642;28;20377;-79
2023/04/18 11:41:50;;;;;;;2.13;1.60;;;17.40;96.80;;;;;;5095554;28;20267;-76
2023/04/18 11:44:25;;;;;;;2.57;1.50;;;17.30;96.30;;;;;;5095357;28;20681;-77
2023/04/18 11:46:52;;;;;;;1.40;1.40;;;17.20;96.60;;;;;;5093903;28;20173;-80
2023/04/18 11:49:29;;;;;;;1.53;1.50;;;17.20;96.00;;;;;;5095429;28;20573;-77
2023/04/18 11:51:55;;;;;;;1.50;1.50;;;17.10;96.40;;;;;;5095420;28;20171;-78
2023/04/18 11:54:43;;;;;;;3.10;1.60;;;17.00;96.80;;;;;;5098632;28;20205;-78
2023/04/18 11:57:39;;;;;;;1.50;1.50;;;16.80;97.30;;;;;;5094524;28;20197;-77
2023/04/18 12:00:09;;;;;;;1.60;1.50;;;16.60;98.20;;;;;;5013269;28;20229;-79
2023/04/18 12:02:46;;;;;;;1.50;1.50;;;16.50;97.70;;;;;;5013587;28;20665;-77
2023/04/18 12:05:23;;;;;;;1.27;1.27;;;16.50;98.70;;;;;;5017685;28;20211;-82
2023/04/18 12:07:48;;;;;;;1.50;1.40;;;16.60;99.90;;;;;;5013584;28;20165;-78
2023/04/18 12:10:28;;;;;;;1.43;1.43;;;16.70;99.90;;;;;;5014307;28;20184;-78
2023/04/18 12:12:59;;;;;;;1.50;1.50;;;16.80;99.90;;;;;;5012858;28;20223;-77
2023/04/18 12:15:27;;;;;;;1.97;1.50;;;17.10;99.90;;;;;;4996299;28;20197;-79
2023/04/18 12:18:01;;;;;;;1.47;1.40;;;17.20;99.90;;;;;;5012550;28;20526;-83
2023/04/18 12:20:36;;;;;;;1.40;1.40;;;17.40;99.90;;;;;;5013164;28;20211;-79
2023/04/18 12:23:03;;;;;;;1.20;1.20;;;17.50;99.60;;;;;;5015260;28;20264;-78
2023/04/18 12:25:29;;;;;;;1.30;1.20;;;17.30;99.20;;;;;;5012611;28;20186;-76
2023/04/18 12:28:16;;;;;;;1.37;1.37;;;17.20;99.00;;;;;;5012576;28;20700;-77
2023/04/18 12:30:42;;;;;;;1.20;1.20;;;17.20;99.10;;;;;;5012611;28;20187;-81
2023/04/18 12:33:08;;;;;;;1.47;1.40;;;17.20;98.70;;;;;;5012617;28;20177;-77
2023/04/18 12:35:34;;;;;;;1.60;1.50;;;17.40;98.90;;;;;;5022972;28;20231;-78
2023/04/18 12:38:01;;;;;;;1.33;1.30;;;17.30;98.70;;;;;;5094280;28;20166;-78
2023/04/18 12:40:28;;;;;;;1.17;1.17;;;17.40;98.90;;;;;;5094182;28;20199;-81
2023/04/18 12:42:55;;;;;;;1.23;1.23;;;17.40;98.50;;;;;;5094600;28;20174;-79
2023/04/18 12:45:22;;;;;;;1.20;1.20;;;17.60;98.30;;;;;;5094199;28;20285;-81
2023/04/18 12:47:49;;;;;;;1.90;1.47;;;17.60;98.30;;;;;;5094972;28;20614;-80
2023/04/18 12:50:23;;;;;;;1.27;1.27;;;17.90;98.30;;;;;;5095276;28;20508;-79
2023/04/18 12:52:51;;;;;;;1.30;1.30;;;17.90;98.20;;;;;;5094163;28;20162;-78
2023/04/18 12:55:17;;;;;;;1.40;1.30;;;18.00;98.30;;;;;;5093969;28;20240;-80